Latest Weather Observations for Tewantin

IDQ60901

Issued at 8:15 am EST Tuesday 23 September 2014 (issued every 10 minutes, with the page automatically refreshed every 10 minutes)

About weather observations | Map of Brisbane area stations | Latest observations for Brisbane area | Other Formats
Station Details ID: 040908 Name: TEWANTIN RSL PARK Lat: -26.39 Lon: 153.04 Height: 6.4 m
Data from the previous 72 hours. | See also: Recent months at Tewantin
Date/Time
EST
Tmp

°C
App
Tmp
°C
Dew
Point
°C
Rel
Hum
%
Delta-T

°C
Wind Press
QNH
hPa
Press
MSL
hPa
Rain
since
9 am
mm
Dir
 
Spd
km/h
Gust
km/h
Spd
kts
Gust
kts
23/08:00am 20.8 17.2 11.7 56 5.0 ESE 22 35 12 19 1027.3 1027.3 3.6
23/07:30am 20.4 17.4 12.6 61 4.4 ESE 20 35 11 19 1027.0 1027.0 3.6
23/07:00am 19.8 17.5 13.0 65 3.8 ESE 17 24 9 13 1026.8 1026.8 3.6
23/06:30am 19.6 16.6 12.1 62 4.2 ESE 19 32 10 17 1026.4 1026.4 3.6
23/06:00am 19.4 16.4 12.7 65 3.7 ESE 20 30 11 16 1025.9 1025.9 3.6
23/05:30am 19.3 16.7 13.2 68 3.5 ESE 19 35 10 19 1025.4 1025.4 3.6
23/05:00am 17.2 17.3 15.5 90 1.0 SSW 9 13 5 7 1025.4 1025.4 3.6
23/04:30am 18.1 17.3 15.0 82 1.8 ESE 13 19 7 10 1025.3 1025.3 3.6
23/04:00am 18.6 17.1 14.3 76 2.5 E 15 22 8 12 1025.1 1025.1 3.6
23/03:30am 18.1 17.5 14.6 80 2.0 E 11 19 6 10 1024.9 1024.9 3.6
23/03:00am 16.8 17.5 16.2 96 0.4 S 7 11 4 6 1024.9 1024.9 3.6
23/02:30am 16.9 16.8 16.1 95 0.5 S 11 15 6 8 1025.1 1025.1 3.6
23/02:00am 17.0 17.6 15.7 92 0.8 S 7 9 4 5 1025.3 1025.3 3.6
23/01:30am 17.0 16.5 15.0 88 1.2 E 11 20 6 11 1025.7 1025.7 3.6
23/01:00am 16.9 16.8 15.9 94 0.6 SE 11 20 6 11 1026.0 1026.0 3.4
23/12:30am 17.1 17.1 15.3 89 1.0 NE 9 17 5 9 1026.3 1026.3 1.0
23/12:00am 17.9 15.5 14.4 80 2.0 ENE 20 35 11 19 1026.5 1026.5 0.0
 
Date/Time
EST
Tmp

°C
App
Tmp
°C
Dew
Point
°C
Rel
Hum
%
Delta-T

°C
Wind Press
QNH
hPa
Press
MSL
hPa
Rain
since
9 am
mm
Dir
 
Spd
km/h
Gust
km/h
Spd
kts
Gust
kts
22/11:30pm 19.5 17.4 12.5 64 3.9 E 15 30 8 16 1026.5 1026.5 0.0
22/11:00pm 19.3 16.9 13.7 70 3.2 E 19 28 10 15 1026.6 1026.6 0.0
22/10:30pm 19.7 16.5 13.2 66 3.7 E 22 30 12 16 1026.7 1026.7 0.0
22/10:00pm 19.7 16.7 13.6 68 3.5 ESE 22 33 12 18 1026.7 1026.7 0.0
22/09:30pm 19.8 17.5 13.0 65 3.9 ESE 17 28 9 15 1026.9 1026.9 0.0
22/09:00pm 19.8 17.0 12.6 63 4.0 ESE 19 28 10 15 1026.9 1026.9 0.0
22/08:30pm 19.9 17.4 12.4 62 4.2 ESE 17 28 9 15 1027.1 1027.1 0.0
22/08:00pm 19.9 17.6 12.9 64 3.9 ESE 17 26 9 14 1027.1 1027.1 0.0
22/07:30pm 19.9 16.9 12.7 63 4.1 ESE 20 32 11 17 1026.7 1026.7 0.0
22/07:00pm 19.8 16.7 12.3 62 4.2 ESE 20 32 11 17 1026.2 1026.2 0.0
22/06:30pm 19.8 16.7 12.3 62 4.2 ESE 20 35 11 19 1025.7 1025.7 0.0
22/06:00pm 19.9 15.9 11.9 60 4.4 ESE 24 37 13 20 1025.5 1025.5 0.0
22/05:30pm 19.9 16.2 12.7 63 4.1 ESE 24 37 13 20 1025.5 1025.5 0.0
22/05:00pm 19.0 17.7 13.6 71 3.1 SE 13 19 7 10 1025.4 1025.4 0.0
22/04:30pm 20.3 17.2 12.3 60 4.5 ESE 20 32 11 17 1025.1 1025.1 0.0
22/04:00pm 20.2 17.1 12.2 60 4.5 SE 20 39 11 21 1024.8 1024.8 0.0
22/03:30pm 20.5 17.5 12.5 60 4.5 SE 20 30 11 16 1024.7 1024.7 0.0
22/03:00pm 20.4 17.2 13.1 63 4.1 SE 22 39 12 21 1024.7 1024.7 0.0
22/02:30pm 20.6 17.1 12.3 59 4.7 ESE 22 35 12 19 1024.8 1024.8 0.0
22/02:00pm 21.0 18.1 12.9 60 4.6 SE 20 35 11 19 1024.8 1024.8 0.0
22/01:30pm 21.2 17.5 11.5 54 5.4 ESE 22 33 12 18 1025.1 1025.1 0.0
22/01:00pm 20.7 16.8 10.8 53 5.4 ESE 22 32 12 17 1025.5 1025.5 0.0
22/12:30pm 20.9 17.4 11.0 53 5.4 ESE 20 30 11 16 1025.8 1025.8 0.0
22/12:00pm 20.9 17.2 11.5 55 5.2 ESE 22 32 12 17 1026.0 1026.0 0.0
22/11:30am 21.2 17.3 12.1 56 5.1 ESE 24 37 13 20 1026.2 1026.2 0.0
22/11:00am 21.7 17.6 11.4 52 5.7 ESE 24 37 13 20 1026.6 1026.6 0.0
22/10:30am 21.0 16.9 11.6 55 5.2 ESE 24 37 13 20 1026.9 1026.9 0.0
22/10:00am 20.7 17.1 11.9 57 4.9 ESE 22 33 12 18 1027.0 1027.0 0.0
22/09:30am 21.5 17.7 11.2 52 5.7 ESE 22 33 12 18 1026.7 1026.7 0.0
22/09:00am 21.1 17.1 11.7 55 5.2 ESE 24 35 13 19 1026.5 1026.5 0.8
22/08:30am 20.7 16.0 10.5 52 5.5 ESE 26 37 14 20 1026.2 1026.2 0.8
22/08:00am 20.9 17.4 12.1 57 4.9 ESE 22 35 12 19 1026.0 1026.0 0.8
22/07:30am 20.3 16.7 12.0 59 4.6 ESE 22 37 12 20 1025.7 1025.7 0.8
22/07:00am 20.1 16.6 12.3 61 4.3 ESE 22 37 12 20 1025.5 1025.5 0.8
22/06:30am 19.3 16.4 12.8 66 3.7 ESE 20 28 11 15 1024.9 1024.9 0.8
22/06:00am 19.2 16.5 12.9 67 3.5 ESE 19 32 10 17 1024.7 1024.7 0.8
22/05:30am 17.5 16.3 14.0 80 2.0 S 13 19 7 10 1024.8 1024.8 0.8
22/05:00am 16.2 15.4 13.9 86 1.3 SSW 11 17 6 9 1024.6 1024.6 0.8
22/04:30am 16.1 14.8 13.6 85 1.4 SSW 13 19 7 10 1024.5 1024.5 0.8
22/04:00am 16.4 15.4 13.5 83 1.6 SSW 11 17 6 9 1024.4 1024.4 0.8
22/03:30am 16.7 14.9 12.0 74 2.6 S 13 17 7 9 1024.2 1024.2 0.8
22/03:00am 19.1 16.8 11.7 62 4.1 ESE 15 20 8 11 1024.1 1024.1 0.8
22/02:30am 19.1 16.6 11.2 60 4.3 ESE 15 28 8 15 1024.2 1024.2 0.8
22/02:00am 17.0 16.2 12.9 77 2.3 S 9 13 5 7 1024.8 1024.8 0.8
22/01:30am 18.8 16.5 11.6 63 4.0 SSE 15 24 8 13 1025.2 1025.2 0.8
22/01:00am 19.1 16.5 12.1 64 3.9 ESE 17 26 9 14 1025.5 1025.5 0.8
22/12:30am 17.4 16.6 14.1 81 1.9 S 11 19 6 10 1025.5 1025.5 0.8
22/12:00am 19.1 17.6 11.9 63 4.0 SE 11 19 6 10 1026.0 1026.0 0.8
 
Date/Time
EST
Tmp

°C
App
Tmp
°C
Dew
Point
°C
Rel
Hum
%
Delta-T

°C
Wind Press
QNH
hPa
Press
MSL
hPa
Rain
since
9 am
mm
Dir
 
Spd
km/h
Gust
km/h
Spd
kts
Gust
kts
21/11:30pm 19.3 17.2 11.1 59 4.5 ESE 13 19 7 10 1026.1 1026.1 0.8
21/11:00pm 19.5 16.5 11.8 61 4.2 ESE 19 28 10 15 1025.6 1025.6 0.8
21/10:30pm 19.3 16.6 11.8 62 4.1 ESE 17 24 9 13 1026.2 1026.2 0.8
21/10:00pm 19.3 17.0 11.8 62 4.1 ESE 15 24 8 13 1026.1 1026.1 0.8
21/09:30pm 19.0 17.1 11.8 63 4.0 ESE 13 22 7 12 1025.9 1025.9 0.8
21/09:00pm 19.2 17.3 11.7 62 4.1 SE 13 22 7 12 1025.8 1025.8 0.8
21/08:30pm 19.0 16.6 12.7 67 3.5 ESE 17 30 9 16 1025.8 1025.8 0.8
21/08:00pm 18.8 16.2 13.2 70 3.1 ESE 19 28 10 15 1025.9 1025.9 0.8
21/07:30pm 17.3 17.6 15.1 87 1.3 SSE 7 15 4 8 1025.7 1025.7 0.8
21/07:00pm 16.6 17.1 15.1 91 0.9 SW 6 9 3 5 1025.4 1025.4 0.8
21/06:30pm 16.7 16.9 14.7 88 1.2 SE 7 13 4 7 1025.1 1025.1 0.6
21/06:00pm 18.2 15.7 12.2 68 3.3 ESE 17 32 9 17 1025.0 1025.0 0.4
21/05:30pm 18.2 16.2 12.6 70 3.1 ESE 15 24 8 13 1024.6 1024.6 0.4
21/05:00pm 18.6 17.1 13.0 70 3.1 SE 13 20 7 11 1024.3 1024.3 0.4
21/04:30pm 19.1 16.7 13.7 71 3.1 SE 19 30 10 16 1024.0 1024.0 0.4
21/04:00pm 20.0 18.0 12.7 63 4.1 SE 15 24 8 13 1023.6 1023.6 0.4
21/03:30pm 19.5 16.9 13.9 70 3.2 ESE 20 30 11 16 1023.7 1023.7 0.4
21/03:00pm 18.8 17.8 14.7 77 2.4 S 13 22 7 12 1023.5 1023.5 0.2
21/02:30pm 19.7 18.1 12.9 65 3.8 ESE 13 24 7 13 1023.6 1023.6 0.0
21/02:00pm 19.9 17.9 12.7 63 4.0 ESE 15 22 8 12 1023.7 1023.7 0.0
21/01:30pm 18.8 15.8 12.1 65 3.7 E 19 30 10 16 1023.9 1023.9 0.0
21/01:00pm 20.8 18.8 12.8 60 4.5 SE 15 24 8 13 1023.9 1023.9 0.0
21/12:30pm 21.5 20.4 14.4 64 4.2 SE 13 26 7 14 1024.4 1024.4 0.0
21/12:00pm 20.6 19.0 14.0 66 3.8 SE 15 24 8 13 1024.7 1024.7 0.0
21/11:30am 20.8 19.0 14.5 67 3.7 SE 17 26 9 14 1024.9 1024.9 0.0
21/11:00am 20.7 19.2 14.1 66 3.8 SE 15 24 8 13 1025.1 1025.1 0.0
21/10:30am 20.8 18.8 14.0 65 3.9 SSE 17 28 9 15 1025.6 1025.6 0.0
21/10:00am 20.4 18.8 13.8 66 3.8 S 15 26 8 14 1025.7 1025.7 0.0
21/09:30am 19.4 18.1 13.8 70 3.2 S 13 22 7 12 1025.9 1025.9 0.0
21/09:00am 18.8 17.4 13.4 71 3.0 S 13 19 7 10 1026.0 1026.0 6.2
21/08:30am 18.4 16.8 12.8 70 3.1 S 13 19 7 10 1025.7 1025.7 6.2
21/08:00am 18.3 16.2 12.3 68 3.3 S 15 20 8 11 1025.3 1025.3 6.2
21/07:30am 17.5 16.5 12.2 71 2.9 S 9 17 5 9 1025.2 1025.2 6.2
21/07:00am 18.8 16.9 10.4 58 4.5 SE 11 19 6 10 1025.0 1025.0 6.2
21/06:30am 18.6 16.2 9.9 57 4.6 SE 13 20 7 11 1024.5 1024.5 6.2
21/06:00am 18.2 16.6 10.1 59 4.3 SE 9 17 5 9 1024.3 1024.3 6.2
21/05:30am 18.0 16.3 9.9 59 4.3 SE 9 17 5 9 1023.7 1023.7 6.2
21/05:00am 18.0 16.2 10.9 63 3.8 SE 11 19 6 10 1023.6 1023.6 6.2
21/04:30am 16.5 16.2 14.3 87 1.3 S 9 11 5 6 1023.5 1023.5 6.2
21/04:00am 16.0 16.5 14.9 93 0.6 SW 6 7 3 4 1023.1 1023.1 6.2
21/03:30am 16.1 16.6 15.0 93 0.6 SW 6 9 3 5 1023.0 1023.0 6.2
21/03:00am 16.3 16.9 15.2 93 0.6 S 6 13 3 7 1023.1 1023.1 6.0
21/02:30am 16.3 16.9 15.2 93 0.6 SSW 6 9 3 5 1023.3 1023.3 5.6
21/02:00am 16.6 16.7 15.5 93 0.6 S 9 13 5 7 1023.3 1023.3 5.6
21/01:30am 16.5 17.0 15.5 94 0.6 SSW 7 9 4 5 1023.5 1023.5 5.6
21/01:00am 16.3 16.9 15.2 93 0.6 S 6 9 3 5 1023.9 1023.9 4.8
21/12:30am 16.7 16.8 15.6 93 0.6 SSE 9 15 5 8 1024.1 1024.1 4.2
21/12:00am 16.9 18.7 16.4 97 0.3 WSW 2 7 1 4 1023.6 1023.6 4.0
 
Date/Time
EST
Tmp

°C
App
Tmp
°C
Dew
Point
°C
Rel
Hum
%
Delta-T

°C
Wind Press
QNH
hPa
Press
MSL
hPa
Rain
since
9 am
mm
Dir
 
Spd
km/h
Gust
km/h
Spd
kts
Gust
kts
20/11:30pm 16.9 18.3 16.3 96 0.4 ESE 4 9 2 5 1024.0 1024.0 4.0
20/11:00pm 16.7 17.6 16.5 99 0.1 NE 7 11 4 6 1024.1 1024.1 4.0
20/10:30pm 16.9 18.0 16.7 99 0.1 ESE 6 9 3 5 1023.9 1023.9 3.2
20/10:00pm 17.2 18.3 16.6 96 0.4 S 6 7 3 4 1023.7 1023.7 0.2
20/09:30pm 17.0 17.3 15.9 93 0.6 S 9 13 5 7 1023.8 1023.8 0.2
20/09:00pm 16.9 17.2 16.1 95 0.5 SE 9 13 5 7 1023.7 1023.7 0.2
20/08:30pm 17.0 15.8 16.2 95 0.5 SE 17 26 9 14 1023.3 1023.3 0.0
20/08:00pm 17.3 16.5 15.1 87 1.3 SSE 13 20 7 11 1023.0 1023.0 0.0
20/07:30pm 18.0 17.5 14.9 82 1.8 SSW 11 15 6 8 1022.6 1022.6 0.0
20/07:00pm 18.1 19.0 15.0 82 1.8 SW 4 11 2 6 1022.1 1022.1 0.0
20/06:30pm 17.8 18.6 14.7 82 1.8 ENE 4 9 2 5 1021.2 1021.2 0.0
20/06:00pm 18.1 17.5 15.7 86 1.4 ESE 13 19 7 10 1021.0 1021.0 0.0
20/05:30pm 17.5 16.9 15.7 89 1.1 SE 13 20 7 11 1020.1 1020.1 0.0
20/05:00pm 17.7 16.7 15.7 88 1.2 SSE 15 26 8 14 1019.5 1019.5 0.0
20/04:30pm 19.0 16.9 13.6 71 3.1 SE 17 32 9 17 1019.3 1019.3 0.0
20/04:00pm 20.8 20.2 14.5 67 3.7 ESE 11 15 6 8 1018.6 1018.6 0.0
20/03:30pm 20.6 19.4 12.8 61 4.4 ESE 11 17 6 9 1018.4 1018.4 0.0
20/03:00pm 20.7 19.1 12.7 60 4.5 ESE 13 19 7 10 1018.5 1018.5 0.0
20/02:30pm 20.4 18.8 12.9 62 4.3 SE 13 20 7 11 1018.5 1018.5 0.0
20/02:00pm 19.8 18.4 14.4 71 3.1 SE 15 24 8 13 1018.7 1018.7 0.0
20/01:30pm 20.4 19.3 15.4 73 3.0 SE 15 24 8 13 1018.6 1018.6 0.0
20/01:00pm 20.2 18.9 14.8 71 3.2 S 15 28 8 15 1019.1 1019.1 0.0
20/12:30pm 21.1 19.5 13.8 63 4.2 SE 15 26 8 14 1019.1 1019.1 0.0
20/12:00pm 21.8 19.4 13.7 60 4.7 ESE 19 24 10 13 1019.2 1019.2 0.0
20/11:30am 24.4 24.4 15.3 57 5.5 N 9 17 5 9 1019.5 1019.5 0.0
20/11:00am 23.3 22.7 12.3 50 6.2 N 7 13 4 7 1020.0 1020.0 0.0
20/10:30am 22.8 22.2 12.4 52 5.9 N 7 13 4 7 1020.4 1020.4 0.0
20/10:00am 23.0 21.9 13.2 54 5.6 N 11 17 6 9 1020.7 1020.7 0.0
20/09:30am 22.8 22.0 13.0 54 5.6 NNW 9 17 5 9 1021.0 1021.0 0.0
20/09:00am 22.6 22.4 13.7 57 5.2 NNW 7 13 4 7 1021.1 1021.1 0.0
20/08:30am 21.2 21.2 13.6 62 4.4 NNW 6 11 3 6 1021.1 1021.1 0.0

Latest Capital City Observations: Canberra | Sydney | Melbourne | Brisbane | Adelaide | Perth | Hobart | Darwin

Other Formats:

Comma delimited format used in spreadsheet applications
http://www.bom.gov.au/fwo/IDQ60901/IDQ60901.94570.axf

JavaScript Object Notation format (JSON) in row-major order
http://www.bom.gov.au/fwo/IDQ60901/IDQ60901.94570.json